createdAt,value
2018-10-16T00:00:53.501Z,88.70
2018-10-16T00:01:53.498Z,88.03
2018-10-16T00:02:53.497Z,87.74
2018-10-16T00:03:53.491Z,88.12
2018-10-16T00:04:53.485Z,87.17
2018-10-16T00:05:53.478Z,87.17
2018-10-16T00:06:53.474Z,86.36
2018-10-16T00:07:53.466Z,85.78
2018-10-16T00:08:53.460Z,86.07
2018-10-16T00:09:53.456Z,85.50
2018-10-16T00:10:53.451Z,85.12
2018-10-16T00:11:54.276Z,84.64
2018-10-16T00:12:53.449Z,84.78
2018-10-16T00:13:53.437Z,84.59
2018-10-16T00:14:53.432Z,84.59
2018-10-16T00:15:53.425Z,84.45
2018-10-16T00:16:53.423Z,84.74
2018-10-16T00:17:53.420Z,85.21
2018-10-16T00:18:53.414Z,85.21
2018-10-16T00:19:53.410Z,85.97
2018-10-16T00:20:53.402Z,86.65
2018-10-16T00:21:53.395Z,86.26
2018-10-16T00:22:53.389Z,85.60
2018-10-16T00:23:53.387Z,86.26
2018-10-16T00:24:53.384Z,86.88
2018-10-16T00:25:53.376Z,87.31
2018-10-16T00:26:53.372Z,86.88
2018-10-16T00:27:53.366Z,86.74
2018-10-16T00:28:53.364Z,86.16
2018-10-16T00:29:53.357Z,85.69
2018-10-16T00:30:53.351Z,86.07
2018-10-16T00:31:53.347Z,85.31
2018-10-16T00:32:53.340Z,85.97
2018-10-16T00:33:53.337Z,85.31
2018-10-16T00:34:53.334Z,85.41
2018-10-16T00:35:53.331Z,84.74
2018-10-16T00:36:53.320Z,85.02
2018-10-16T00:37:53.316Z,85.50
2018-10-16T00:38:53.312Z,85.88
2018-10-16T00:39:53.307Z,86.74
2018-10-16T00:40:53.299Z,87.12
2018-10-16T00:41:53.295Z,87.12
2018-10-16T00:42:53.289Z,87.40
2018-10-16T00:43:53.295Z,87.17
2018-10-16T00:44:53.286Z,86.93
2018-10-16T00:45:53.274Z,87.93
2018-10-16T00:46:53.275Z,87.79
2018-10-16T00:47:53.273Z,87.55
2018-10-16T00:48:53.263Z,88.60
2018-10-16T00:49:53.258Z,88.70
2018-10-16T00:50:53.252Z,88.70
2018-10-16T00:51:53.249Z,88.98
2018-10-16T00:52:53.240Z,88.79
2018-10-16T00:53:53.239Z,88.79
2018-10-16T00:54:53.313Z,88.60
2018-10-16T00:55:53.226Z,89.26
2018-10-16T00:56:53.222Z,90.12
2018-10-16T00:57:53.217Z,89.75
2018-10-16T00:58:53.209Z,89.84
2018-10-16T00:59:53.213Z,90.60
2018-10-16T01:00:53.197Z,90.89
2018-10-16T01:01:53.787Z,90.89
2018-10-16T01:02:53.193Z,90.36
2018-10-16T01:03:53.184Z,91.17
2018-10-16T01:04:53.180Z,90.84
2018-10-16T01:05:53.177Z,91.31
2018-10-16T01:06:53.170Z,91.22
2018-10-16T01:07:53.171Z,91.70
2018-10-16T01:08:53.158Z,91.79
2018-10-16T01:09:53.154Z,91.51
2018-10-16T01:10:53.147Z,91.31
2018-10-16T01:11:53.143Z,91.31
2018-10-16T01:12:53.139Z,91.51
2018-10-16T01:13:53.133Z,91.79
2018-10-16T01:14:53.130Z,91.60
2018-10-16T01:15:53.122Z,92.18
2018-10-16T01:16:53.112Z,92.18
2018-10-16T01:17:53.119Z,92.46
2018-10-16T01:18:53.104Z,92.36
2018-10-16T01:19:53.100Z,92.18
2018-10-16T01:20:53.098Z,92.27
2018-10-16T01:21:53.094Z,92.18
2018-10-16T01:22:53.088Z,91.99
2018-10-16T01:23:53.080Z,91.70
2018-10-16T01:24:53.074Z,91.70
2018-10-16T01:25:53.070Z,91.13
2018-10-16T01:26:53.062Z,91.51
2018-10-16T01:27:53.058Z,91.70
2018-10-16T01:28:53.052Z,91.79
